Time;durP1;ratioP1;P1;durP2;ratioP2;P2;SDS_P1;SDS_P2;PMS_P1;PMS_P2;Temp;Humidity;BMP_temperature;BMP_pressure;BME280_temperature;BME280_humidity;BME280_pressure;Samples;Min_cycle;Max_cycle;Signal;HPM_P1;HPM_P2
2022/08/17 00:02:18;;;;;;;35.20;29.92;;;22.70;99.90;;;;;;4991735;28;20221;-82
2022/08/17 00:04:53;;;;;;;36.17;31.20;;;22.60;99.90;;;;;;4970631;28;20221;-82
2022/08/17 00:07:20;;;;;;;35.03;28.90;;;22.60;99.90;;;;;;4963159;28;20660;-82
2022/08/17 00:09:47;;;;;;;39.13;32.90;;;22.60;99.90;;;;;;4989782;28;20219;-80
2022/08/17 00:12:14;;;;;;;37.28;32.72;;;22.60;99.90;;;;;;4997602;28;20227;-80
2022/08/17 00:15:02;;;;;;;43.03;34.80;;;22.60;99.90;;;;;;4976602;28;20211;-81
2022/08/17 00:17:29;;;;;;;44.92;35.20;;;22.50;99.90;;;;;;4997970;28;20210;-80
2022/08/17 00:19:59;;;;;;;43.80;35.17;;;22.40;99.90;;;;;;4982404;28;20203;-79
2022/08/17 00:22:26;;;;;;;40.55;35.28;;;22.30;99.90;;;;;;5007168;28;20630;-80
2022/08/17 00:25:06;;;;;;;44.20;33.03;;;22.30;99.90;;;;;;4984089;28;20290;-80
2022/08/17 00:27:39;;;;;;;43.58;34.75;;;22.20;99.90;;;;;;4989889;28;20203;-82
2022/08/17 00:30:09;;;;;;;39.28;33.85;;;22.20;99.90;;;;;;4999678;28;20215;-82
2022/08/17 00:32:44;;;;;;;34.65;30.05;;;22.10;99.90;;;;;;4999249;28;20231;-82
2022/08/17 00:35:33;;;;;;;36.55;30.48;;;22.10;99.90;;;;;;4985440;28;20374;-79
2022/08/17 00:38:03;;;;;;;41.25;35.53;;;22.00;99.90;;;;;;4999867;28;20289;-82
2022/08/17 00:40:32;;;;;;;49.85;34.67;;;22.00;99.90;;;;;;4999675;28;20207;-80
2022/08/17 00:43:52;;;;;;;38.33;33.00;;;21.90;99.90;;;;;;4998988;28;20199;-80
2022/08/17 00:46:43;;;;;;;41.22;33.10;;;21.90;99.90;;;;;;4978446;28;20300;-79
2022/08/17 00:49:30;;;;;;;43.85;35.38;;;21.80;99.90;;;;;;4989649;28;20246;-80
2022/08/17 00:52:14;;;;;;;37.08;31.88;;;21.80;99.90;;;;;;4998461;28;20671;-80
2022/08/17 00:54:52;;;;;;;38.72;31.95;;;21.80;99.90;;;;;;4978709;28;20540;-81
2022/08/17 00:57:28;;;;;;;36.33;30.73;;;21.80;99.90;;;;;;4982373;28;20203;-81
2022/08/17 01:00:08;;;;;;;41.00;31.35;;;21.80;99.90;;;;;;4984121;28;20207;-81
2022/08/17 01:02:39;;;;;;;37.20;30.98;;;21.80;99.90;;;;;;4998871;28;20198;-82
2022/08/17 01:05:15;;;;;;;35.10;29.67;;;21.70;99.90;;;;;;4969826;28;20679;-81
2022/08/17 01:07:49;;;;;;;38.25;31.00;;;21.70;99.90;;;;;;4982138;28;20295;-82
2022/08/17 01:10:21;;;;;;;37.95;30.60;;;21.70;99.90;;;;;;4999666;28;20273;-81
2022/08/17 01:13:10;;;;;;;37.72;30.65;;;21.70;99.90;;;;;;4977772;28;20255;-81
2022/08/17 01:15:40;;;;;;;43.72;34.90;;;21.70;99.90;;;;;;4998843;28;20195;-81
2022/08/17 01:18:13;;;;;;;41.95;34.10;;;21.60;99.90;;;;;;4981689;28;20211;-81
2022/08/17 01:20:52;;;;;;;42.67;35.35;;;21.70;99.90;;;;;;4981781;28;20219;-81
2022/08/17 01:23:27;;;;;;;42.33;35.50;;;21.60;99.90;;;;;;4999065;28;20271;-80
2022/08/17 01:25:58;;;;;;;41.38;34.80;;;21.50;99.90;;;;;;4981619;28;20330;-81
2022/08/17 01:28:31;;;;;;;43.88;36.05;;;21.50;99.90;;;;;;4981231;28;20203;-80
2022/08/17 01:31:31;;;;;;;46.50;37.65;;;21.30;99.90;;;;;;4999045;28;20214;-82
2022/08/17 01:34:03;;;;;;;48.55;37.58;;;21.30;99.90;;;;;;4983587;28;20301;-80
2022/08/17 01:36:30;;;;;;;48.63;38.17;;;21.30;99.90;;;;;;4986811;28;20210;-81
2022/08/17 01:38:58;;;;;;;47.63;37.08;;;21.20;99.90;;;;;;4968933;28;20207;-80
2022/08/17 01:41:35;;;;;;;42.70;35.45;;;21.20;99.90;;;;;;5001478;28;20214;-79
2022/08/17 01:44:05;;;;;;;43.30;34.42;;;21.20;99.90;;;;;;4985017;28;20210;-80
2022/08/17 01:46:35;;;;;;;43.75;34.75;;;21.20;99.90;;;;;;4990374;28;20274;-80
2022/08/17 01:49:07;;;;;;;44.15;35.25;;;21.20;99.90;;;;;;5002108;28;20735;-79
2022/08/17 01:51:34;;;;;;;43.17;34.47;;;21.20;99.90;;;;;;5001624;28;20226;-80
2022/08/17 01:54:04;;;;;;;43.45;34.42;;;21.20;99.90;;;;;;5003055;28;20234;-81
2022/08/17 01:56:34;;;;;;;44.13;37.05;;;21.20;99.90;;;;;;4983877;28;20207;-80
2022/08/17 01:59:02;;;;;;;51.63;38.88;;;21.20;99.90;;;;;;4978113;28;20762;-81
2022/08/17 02:01:31;;;;;;;46.78;37.75;;;21.20;99.90;;;;;;4965465;28;20207;-80
2022/08/17 02:03:58;;;;;;;41.85;35.20;;;21.20;99.90;;;;;;4982948;28;20791;-81
2022/08/17 02:06:32;;;;;;;48.58;38.05;;;21.20;99.90;;;;;;5003894;28;20207;-79
2022/08/17 02:09:22;;;;;;;42.53;34.47;;;21.20;99.90;;;;;;5005405;28;20221;-80
2022/08/17 02:11:55;;;;;;;44.83;36.47;;;21.20;99.90;;;;;;5001985;28;20241;-80
2022/08/17 02:14:23;;;;;;;48.00;37.50;;;21.20;99.90;;;;;;5000025;28;20898;-80
2022/08/17 02:16:56;;;;;;;47.67;36.38;;;21.20;99.90;;;;;;5002320;28;20203;-78
2022/08/17 02:19:36;;;;;;;49.95;39.58;;;21.20;99.90;;;;;;4986322;28;20234;-80
2022/08/17 02:22:29;;;;;;;47.40;37.55;;;21.20;99.90;;;;;;4979711;28;20235;-80
2022/08/17 02:25:13;;;;;;;47.50;38.15;;;21.20;99.90;;;;;;4981575;28;20570;-82
2022/08/17 02:28:13;;;;;;;47.95;38.97;;;21.20;99.90;;;;;;4984307;28;20203;-80
2022/08/17 02:31:20;;;;;;;50.47;39.25;;;21.20;99.90;;;;;;4983702;28;20663;-81
2022/08/17 02:34:02;;;;;;;48.30;37.67;;;21.20;99.90;;;;;;4993521;28;20246;-80
2022/08/17 02:36:52;;;;;;;49.92;36.80;;;21.10;99.90;;;;;;4998613;28;20280;-80
2022/08/17 02:39:30;;;;;;;44.63;35.88;;;21.10;99.90;;;;;;4997814;28;20211;-81
2022/08/17 02:42:02;;;;;;;43.50;35.33;;;21.10;99.90;;;;;;4999282;28;20253;-79
2022/08/17 02:44:30;;;;;;;44.22;37.83;;;21.10;99.90;;;;;;5000460;28;20227;-81
2022/08/17 02:47:07;;;;;;;45.92;37.30;;;21.10;99.90;;;;;;4978776;28;20529;-81
2022/08/17 02:49:34;;;;;;;45.08;37.05;;;21.10;99.90;;;;;;4993619;28;20223;-80
2022/08/17 02:52:04;;;;;;;43.75;34.40;;;21.10;99.90;;;;;;4999794;28;20203;-79
2022/08/17 02:54:31;;;;;;;46.05;37.08;;;21.10;99.90;;;;;;4978464;28;20211;-81
2022/08/17 02:57:08;;;;;;;50.33;38.55;;;21.10;99.90;;;;;;4972808;28;20206;-81
2022/08/17 02:59:40;;;;;;;43.17;34.33;;;21.10;99.90;;;;;;4999118;28;20262;-81
2022/08/17 03:02:14;;;;;;;46.45;37.70;;;21.10;99.90;;;;;;4986308;28;20687;-81
2022/08/17 03:04:41;;;;;;;44.08;34.92;;;21.10;99.90;;;;;;4963759;28;20204;-79
2022/08/17 03:07:08;;;;;;;40.88;32.83;;;21.10;99.90;;;;;;4997350;28;20576;-80
2022/08/17 03:09:35;;;;;;;47.42;35.53;;;21.20;99.90;;;;;;4984519;28;20594;-81
2022/08/17 03:12:08;;;;;;;53.45;38.38;;;21.10;99.90;;;;;;4999947;28;20250;-81
2022/08/17 03:14:37;;;;;;;49.08;38.67;;;21.20;99.90;;;;;;5000823;28;20210;-80
2022/08/17 03:17:09;;;;;;;46.08;35.72;;;21.20;99.90;;;;;;4974829;28;20240;-79
2022/08/17 03:19:41;;;;;;;47.38;37.42;;;21.20;99.90;;;;;;4995623;28;20203;-80
2022/08/17 03:22:11;;;;;;;49.15;37.25;;;21.20;99.90;;;;;;5004378;28;20588;-81
2022/08/17 03:25:04;;;;;;;44.40;34.42;;;21.20;99.90;;;;;;5000420;28;20255;-80
2022/08/17 03:27:37;;;;;;;51.30;39.55;;;21.20;99.90;;;;;;5006426;28;20607;-82
2022/08/17 03:30:12;;;;;;;49.45;37.85;;;21.20;99.90;;;;;;4988516;28;20207;-81
2022/08/17 03:32:46;;;;;;;51.40;39.40;;;21.20;99.90;;;;;;4988205;28;20231;-79
2022/08/17 03:35:20;;;;;;;46.80;35.60;;;21.20;99.90;;;;;;4963787;28;20223;-81
2022/08/17 03:37:47;;;;;;;51.20;37.40;;;21.20;99.90;;;;;;4976519;28;20208;-81
2022/08/17 03:40:27;;;;;;;48.10;36.67;;;21.20;99.90;;;;;;4999496;28;20650;-80
2022/08/17 03:43:15;;;;;;;51.28;38.90;;;21.10;99.90;;;;;;5004836;28;20396;-81
2022/08/17 03:57:04;;;;;;;49.55;36.25;;;21.20;99.90;;;;;;5010635;28;20213;-81
2022/08/17 03:59:32;;;;;;;56.03;39.80;;;21.20;99.90;;;;;;4997038;28;20211;-81
2022/08/17 04:02:07;;;;;;;51.45;39.47;;;21.20;99.90;;;;;;4977073;28;20609;-80
2022/08/17 04:04:35;;;;;;;45.05;35.00;;;21.20;99.90;;;;;;4979010;28;20697;-81
2022/08/17 04:07:03;;;;;;;48.38;36.50;;;21.20;99.90;;;;;;5017283;28;20285;-81
2022/08/17 04:09:29;;;;;;;46.42;35.10;;;21.20;99.90;;;;;;4991506;28;20261;-79
2022/08/17 04:11:57;;;;;;;48.35;39.35;;;21.20;99.90;;;;;;4997504;28;20261;-81
2022/08/17 04:14:35;;;;;;;47.55;36.13;;;21.30;99.90;;;;;;5010180;28;20241;-81
2022/08/17 04:17:23;;;;;;;47.92;38.38;;;21.30;99.90;;;;;;4998997;28;20211;-80
2022/08/17 04:19:56;;;;;;;50.88;37.17;;;21.20;99.90;;;;;;4998460;28;20211;-80
2022/08/17 04:22:33;;;;;;;46.33;37.90;;;21.20;99.90;;;;;;4975638;28;20220;-84
2022/08/17 04:25:21;;;;;;;56.10;41.50;;;21.20;99.90;;;;;;4975924;28;20310;-82
2022/08/17 04:28:01;;;;;;;49.45;36.33;;;21.20;99.90;;;;;;4965512;28;20259;-80
2022/08/17 04:30:54;;;;;;;52.63;39.00;;;21.20;99.90;;;;;;4975730;28;20215;-80
2022/08/17 04:33:41;;;;;;;58.95;41.53;;;21.10;99.90;;;;;;4977082;28;20248;-80
2022/08/17 04:36:28;;;;;;;44.08;34.55;;;21.20;99.90;;;;;;4966386;28;20340;-80
2022/08/17 04:39:04;;;;;;;50.15;38.33;;;21.20;99.90;;;;;;5006236;23;20235;-80
2022/08/17 04:44:19;;;;;;;56.67;41.22;;;21.20;99.90;;;;;;4996429;28;20211;-80
2022/08/17 04:47:04;;;;;;;55.42;41.70;;;21.10;99.90;;;;;;4997734;28;20210;-81
2022/08/17 04:49:31;;;;;;;60.25;43.58;;;21.10;99.90;;;;;;4998869;28;20218;-82
2022/08/17 04:51:58;;;;;;;56.97;42.28;;;21.10;99.90;;;;;;4998687;28;20211;-80
2022/08/17 04:54:30;;;;;;;58.28;42.50;;;21.00;99.90;;;;;;4981001;28;20229;-81
2022/08/17 04:57:00;;;;;;;53.28;40.17;;;21.10;99.90;;;;;;4980778;28;20591;-80
2022/08/17 04:59:27;;;;;;;55.40;40.85;;;21.10;99.90;;;;;;4997574;28;20211;-80
2022/08/17 05:01:54;;;;;;;57.67;40.55;;;21.10;99.90;;;;;;5009805;28;20272;-80
2022/08/17 05:04:23;;;;;;;56.08;40.30;;;21.10;99.90;;;;;;4985217;28;20218;-80
2022/08/17 05:07:00;;;;;;;56.80;40.33;;;21.10;99.90;;;;;;4981743;28;20203;-80
2022/08/17 05:09:27;;;;;;;59.22;41.75;;;21.10;99.90;;;;;;5004924;28;20249;-80
2022/08/17 05:11:54;;;;;;;53.78;38.88;;;21.10;99.90;;;;;;5002337;28;20273;-80
2022/08/17 05:14:22;;;;;;;59.90;42.17;;;21.20;99.90;;;;;;4997487;28;20703;-80
2022/08/17 05:17:05;;;;;;;53.47;39.60;;;21.20;99.90;;;;;;5001797;28;20226;-78
2022/08/17 05:19:40;;;;;;;55.03;38.58;;;21.20;99.90;;;;;;4993841;28;20210;-80
2022/08/17 05:22:21;;;;;;;51.88;37.40;;;21.30;99.90;;;;;;5008217;28;20630;-79
2022/08/17 05:25:12;;;;;;;52.17;38.85;;;21.30;99.90;;;;;;4986296;28;20683;-79
2022/08/17 05:27:41;;;;;;;52.92;38.55;;;21.30;99.90;;;;;;4996265;28;20199;-78
2022/08/17 05:30:10;;;;;;;48.00;37.17;;;21.40;99.90;;;;;;5004990;28;20552;-80
2022/08/17 05:33:01;;;;;;;50.00;36.33;;;21.40;99.90;;;;;;4985278;28;20199;-80
2022/08/17 05:35:46;;;;;;;48.90;35.83;;;21.50;99.90;;;;;;4982164;28;20199;-80
2022/08/17 05:38:20;;;;;;;46.47;34.63;;;21.50;99.90;;;;;;4976251;28;20383;-80
2022/08/17 05:40:47;;;;;;;47.65;35.00;;;21.50;99.90;;;;;;4986108;28;20266;-79
2022/08/17 05:43:21;;;;;;;48.20;36.45;;;21.60;99.90;;;;;;4979794;28;20218;-80
2022/08/17 05:46:06;;;;;;;44.97;35.55;;;21.60;99.90;;;;;;4985123;28;20270;-82
2022/08/17 05:48:45;;;;;;;46.13;35.65;;;21.60;99.90;;;;;;4985406;28;20334;-80
2022/08/17 05:51:24;;;;;;;49.78;36.38;;;21.60;99.90;;;;;;4981493;28;20236;-82
2022/08/17 05:54:23;;;;;;;49.30;34.97;;;21.50;99.90;;;;;;4985032;28;20230;-80
2022/08/17 05:57:05;;;;;;;54.22;38.10;;;21.50;99.90;;;;;;4982246;28;20374;-80
2022/08/17 05:59:57;;;;;;;49.20;36.60;;;21.50;99.90;;;;;;4976300;28;20222;-80
2022/08/17 06:02:30;;;;;;;51.75;39.17;;;21.40;99.90;;;;;;4974442;28;20946;-81
2022/08/17 06:05:10;;;;;;;47.20;35.05;;;21.40;99.90;;;;;;4975265;28;20234;-81
2022/08/17 06:07:50;;;;;;;50.38;36.85;;;21.30;99.90;;;;;;4975086;28;20207;-83
2022/08/17 06:10:31;;;;;;;50.70;38.60;;;21.40;99.90;;;;;;4975659;28;20215;-82
2022/08/17 06:13:30;;;;;;;50.40;37.72;;;21.40;99.90;;;;;;4975033;28;20215;-81
2022/08/17 06:16:21;;;;;;;50.60;37.28;;;21.30;99.90;;;;;;4974213;28;20216;-81
2022/08/17 06:19:13;;;;;;;47.13;34.63;;;21.40;99.90;;;;;;4975913;28;20370;-80
2022/08/17 06:21:45;;;;;;;46.97;35.70;;;21.40;99.90;;;;;;4975914;28;20234;-81
2022/08/17 06:24:35;;;;;;;48.10;36.58;;;21.50;99.90;;;;;;4975641;28;20659;-81
2022/08/17 06:27:15;;;;;;;43.97;33.25;;;21.50;99.90;;;;;;4977632;28;20211;-81
2022/08/17 06:30:05;;;;;;;46.05;34.65;;;21.60;99.90;;;;;;4985429;28;20222;-82
2022/08/17 06:32:38;;;;;;;42.33;32.10;;;21.90;99.90;;;;;;4982898;28;20223;-81
2022/08/17 06:35:07;;;;;;;40.50;29.45;;;22.50;99.90;;;;;;4981259;28;20223;-82
2022/08/17 06:41:31;;;;;;;36.35;29.08;;;23.40;99.90;;;;;;4994176;28;20222;-81
2022/08/17 06:44:18;;;;;;;35.72;27.52;;;23.50;99.90;;;;;;4995392;28;20282;-82
2022/08/17 06:47:51;;;;;;;35.42;27.92;;;23.40;99.90;;;;;;4957823;28;20732;-83
2022/08/17 06:51:18;;;;;;;;;;;;;;;;;;;;;
2022/08/17 06:58:19;;;;;;;36.95;28.60;;;23.10;99.90;;;;;;4956365;28;20261;-82
2022/08/17 07:01:11;;;;;;;39.97;29.67;;;23.00;99.90;;;;;;4962098;28;20225;-81
2022/08/17 07:03:53;;;;;;;36.42;28.77;;;23.00;99.90;;;;;;4995914;28;20218;-81
2022/08/17 07:06:33;;;;;;;38.00;28.70;;;23.00;99.90;;;;;;4977493;28;20238;-82
2022/08/17 07:09:25;;;;;;;35.88;29.80;;;23.00;99.90;;;;;;4978260;28;20218;-82
2022/08/17 07:12:55;;;;;;;;;;;;;;;;;;;;;
2022/08/17 07:15:43;;;;;;;32.63;26.25;;;23.10;99.90;;;;;;4996857;28;20214;-83
2022/08/17 07:18:33;;;;;;;35.78;27.05;;;23.20;99.90;;;;;;5003859;28;20202;-82
2022/08/17 07:21:53;;;;;;;31.83;25.90;;;23.20;99.90;;;;;;4974173;28;20221;-83
2022/08/17 07:32:08;;;;;;;31.58;24.80;;;23.40;99.90;;;;;;4951033;29;20303;-82
2022/08/17 07:35:27;;;;;;;31.63;25.27;;;23.60;99.90;;;;;;4953092;28;20247;-81
2022/08/17 07:42:47;;;;;;;25.70;22.20;;;24.80;99.90;;;;;;4868746;29;20273;-81
2022/08/17 07:49:08;;;;;;;25.77;22.95;;;25.20;99.90;;;;;;5087523;23;20526;-85
2022/08/17 07:51:56;;;;;;;29.05;23.60;;;25.10;99.90;;;;;;4996624;28;20218;-84
2022/08/17 07:54:37;;;;;;;28.08;23.23;;;24.90;99.90;;;;;;4997476;28;20222;-86
2022/08/17 07:57:11;;;;;;;25.83;23.02;;;24.90;99.90;;;;;;4994871;28;20210;-85
2022/08/17 08:00:08;;;;;;;24.23;20.30;;;24.90;99.90;;;;;;4997238;28;20218;-86
2022/08/17 08:02:46;;;;;;;25.75;21.45;;;24.90;99.90;;;;;;4997069;28;20662;-85
2022/08/17 08:05:20;;;;;;;23.77;20.05;;;25.20;99.90;;;;;;4996498;28;20210;-86
2022/08/17 08:08:20;;;;;;;23.75;19.95;;;;;;;;;;4998422;28;20681;-86
2022/08/17 08:11:01;;;;;;;23.20;19.20;;;26.40;99.90;;;;;;4994984;28;20225;-86
2022/08/17 08:13:30;;;;;;;24.77;22.08;;;26.60;99.90;;;;;;5007895;28;20242;-85
2022/08/17 08:16:23;;;;;;;24.17;21.52;;;26.60;99.90;;;;;;4999175;28;20206;-84
2022/08/17 08:18:54;;;;;;;23.08;20.58;;;26.60;99.90;;;;;;4993268;28;20294;-86
2022/08/17 08:21:47;;;;;;;22.88;20.20;;;26.40;99.90;;;;;;4993044;28;20673;-85
2022/08/17 08:24:43;;;;;;;26.58;22.00;;;26.30;99.90;;;;;;5000624;28;20210;-86
2022/08/17 08:27:14;;;;;;;25.05;22.25;;;26.10;99.90;;;;;;5013601;28;20206;-84
2022/08/17 08:29:46;;;;;;;26.83;22.13;;;25.90;99.90;;;;;;5005084;28;20222;-85
2022/08/17 08:32:50;;;;;;;31.25;24.42;;;25.90;99.90;;;;;;4983471;28;20214;-85
2022/08/17 08:35:33;;;;;;;28.35;23.58;;;25.80;99.90;;;;;;5013187;28;20241;-84
2022/08/17 08:38:30;;;;;;;27.17;23.80;;;25.80;99.90;;;;;;4999919;28;20207;-85
2022/08/17 08:41:23;;;;;;;30.48;24.05;;;25.70;99.90;;;;;;5012701;28;20213;-86
2022/08/17 08:44:17;;;;;;;30.15;25.05;;;25.60;99.90;;;;;;4997470;28;20214;-84
2022/08/17 08:47:13;;;;;;;34.05;26.45;;;25.50;99.90;;;;;;4993865;28;20211;-85
2022/08/17 08:50:01;;;;;;;28.92;24.08;;;25.50;99.90;;;;;;5012667;28;20237;-85
2022/08/17 08:52:54;;;;;;;30.38;26.48;;;25.40;99.90;;;;;;4997371;28;20221;-84
2022/08/17 08:55:25;;;;;;;31.08;25.10;;;25.40;99.90;;;;;;4981408;28;20222;-85
2022/08/17 08:57:59;;;;;;;27.30;23.85;;;25.40;99.90;;;;;;4989441;28;20211;-86
2022/08/17 09:00:32;;;;;;;26.85;22.92;;;25.50;99.90;;;;;;4989396;28;20729;-85
2022/08/17 09:03:10;;;;;;;27.42;22.65;;;25.70;99.90;;;;;;5001434;28;20211;-84
2022/08/17 09:06:06;;;;;;;27.83;23.20;;;25.90;99.90;;;;;;5004824;28;20276;-86
2022/08/17 09:09:28;;;;;;;26.85;23.17;;;26.10;99.90;;;;;;5009483;28;20233;-85
2022/08/17 09:12:08;;;;;;;25.75;21.30;;;26.30;99.90;;;;;;5009217;28;20209;-86
2022/08/17 09:14:44;;;;;;;26.40;22.05;;;26.30;99.90;;;;;;4997900;28;20246;-85
2022/08/17 09:17:18;;;;;;;25.90;22.50;;;26.50;99.90;;;;;;4992416;28;20199;-85
2022/08/17 09:20:00;;;;;;;25.35;21.63;;;26.80;99.90;;;;;;4995401;28;20711;-85
2022/08/17 09:22:36;;;;;;;30.15;23.77;;;27.20;99.90;;;;;;4983806;28;20547;-84
2022/08/17 09:25:11;;;;;;;27.80;23.30;;;27.30;99.90;;;;;;4995861;28;20195;-84
2022/08/17 09:27:50;;;;;;;25.23;21.65;;;27.30;99.90;;;;;;5005871;28;20203;-82
2022/08/17 09:30:19;;;;;;;25.25;22.40;;;27.30;99.90;;;;;;5006405;28;20667;-86
2022/08/17 09:32:55;;;;;;;24.83;22.02;;;27.30;99.90;;;;;;4980497;28;20230;-86
2022/08/17 09:35:28;;;;;;;26.52;23.52;;;27.30;99.90;;;;;;5005038;28;20238;-83
2022/08/17 09:38:29;;;;;;;26.55;21.65;;;27.40;99.90;;;;;;4992098;28;20290;-83
2022/08/17 09:41:07;;;;;;;25.77;22.23;;;27.40;99.90;;;;;;4987974;28;20194;-81
2022/08/17 09:43:51;;;;;;;25.02;21.50;;;27.70;99.90;;;;;;4998259;28;20293;-84
2022/08/17 09:46:30;;;;;;;24.35;21.77;;;28.00;99.90;;;;;;4998674;28;20608;-83
2022/08/17 09:49:08;;;;;;;27.13;23.38;;;28.30;99.90;;;;;;5012561;28;20211;-80
2022/08/17 09:52:01;;;;;;;27.27;22.40;;;28.60;99.90;;;;;;4995739;28;20599;-81
2022/08/17 09:54:36;;;;;;;24.50;22.00;;;28.90;99.90;;;;;;5015240;28;20222;-81
2022/08/17 09:57:08;;;;;;;26.58;23.50;;;29.00;99.90;;;;;;5012871;28;20213;-84
2022/08/17 10:00:14;;;;;;;28.88;23.77;;;29.10;99.90;;;;;;5024442;28;20202;-85
2022/08/17 10:03:20;;;;;;;28.42;24.00;;;28.90;99.90;;;;;;4992940;28;20206;-82
2022/08/17 10:05:55;;;;;;;27.73;23.63;;;28.80;99.90;;;;;;4999176;28;20242;-80
2022/08/17 10:08:39;;;;;;;29.17;23.95;;;28.70;99.90;;;;;;5005624;28;20195;-87
2022/08/17 10:15:00;;;;;;;26.90;23.20;;;28.50;99.90;;;;;;5008811;28;20241;-86
2022/08/17 10:18:13;;;;;;;27.77;23.38;;;28.40;99.90;;;;;;4989309;28;20234;-86
2022/08/17 10:20:45;;;;;;;30.00;24.80;;;28.20;99.90;;;;;;5005910;28;20223;-86
2022/08/17 10:26:25;;;;;;;30.58;25.02;;;28.00;99.90;;;;;;5005536;28;20199;-86
2022/08/17 10:29:08;;;;;;;27.27;24.30;;;27.70;99.90;;;;;;4998513;28;20218;-87
2022/08/17 10:31:46;;;;;;;29.90;24.95;;;27.60;99.90;;;;;;4990916;28;20210;-87
2022/08/17 10:35:08;;;;;;;32.15;27.60;;;27.40;99.90;;;;;;5008947;28;20335;-87
2022/08/17 10:38:03;;;;;;;28.55;23.30;;;27.30;99.90;;;;;;4952247;28;20217;-89
2022/08/17 10:40:56;;;;;;;30.65;26.33;;;27.20;99.90;;;;;;5006606;28;20328;-88
2022/08/17 10:43:45;;;;;;;30.15;25.90;;;27.20;99.90;;;;;;4997190;28;20213;-83
2022/08/17 10:47:05;;;;;;;28.80;24.30;;;27.20;99.90;;;;;;5011136;28;20216;-85
2022/08/17 10:49:35;;;;;;;29.58;25.30;;;27.20;99.90;;;;;;4999565;28;20235;-80
2022/08/17 10:52:22;;;;;;;32.75;27.13;;;27.20;99.90;;;;;;5002255;28;20638;-82
2022/08/17 10:54:50;;;;;;;31.08;26.17;;;27.30;99.90;;;;;;4997711;28;20234;-82
2022/08/17 10:57:30;;;;;;;29.10;24.65;;;27.30;99.90;;;;;;4980733;28;20203;-85
2022/08/17 11:00:00;;;;;;;33.25;26.55;;;27.40;99.90;;;;;;5004474;28;20203;-83
2022/08/17 11:02:51;;;;;;;34.30;28.65;;;27.50;99.90;;;;;;4982583;28;20203;-83
2022/08/17 11:05:45;;;;;;;34.50;30.17;;;27.50;99.90;;;;;;4998081;28;20211;-83
2022/08/17 11:08:12;;;;;;;33.47;28.60;;;27.50;99.90;;;;;;4997632;28;20207;-83
2022/08/17 11:11:34;;;;;;;33.58;29.95;;;27.40;99.90;;;;;;4997583;28;20680;-83
2022/08/17 11:14:15;;;;;;;33.95;29.17;;;27.40;99.90;;;;;;4963002;28;20290;-85
2022/08/17 11:17:01;;;;;;;32.50;27.88;;;27.20;99.90;;;;;;5000336;28;20242;-83
2022/08/17 11:20:10;;;;;;;32.85;27.45;;;27.20;99.90;;;;;;4983714;28;20211;-83
2022/08/17 11:23:11;;;;;;;36.08;28.77;;;27.20;99.90;;;;;;4995827;28;20207;-83
2022/08/17 11:25:40;;;;;;;33.20;27.52;;;27.20;99.90;;;;;;5004961;28;20201;-83
2022/08/17 11:28:20;;;;;;;37.38;29.98;;;27.20;99.90;;;;;;4986462;28;20210;-84
2022/08/17 11:30:51;;;;;;;37.80;30.60;;;27.30;99.90;;;;;;4998733;28;20241;-85
2022/08/17 11:33:33;;;;;;;35.03;30.05;;;27.40;99.90;;;;;;5011242;28;20680;-84
2022/08/17 11:36:31;;;;;;;34.72;29.52;;;27.50;99.90;;;;;;5005865;28;20229;-83
2022/08/17 11:39:01;;;;;;;33.67;29.52;;;27.50;99.90;;;;;;5000235;28;20201;-84
2022/08/17 11:42:04;;;;;;;33.08;28.92;;;27.60;99.90;;;;;;5003310;28;20226;-83
2022/08/17 11:44:45;;;;;;;36.15;30.38;;;27.60;99.90;;;;;;5003505;28;20200;-87
2022/08/17 11:53:45;;;;;;;36.95;28.75;;;27.70;99.90;;;;;;5004033;28;20217;-88
2022/08/17 11:56:42;;;;;;;48.25;32.92;;;27.70;99.90;;;;;;4987546;28;20239;-89
2022/08/17 11:59:43;;;;;;;30.95;25.27;;;27.70;99.90;;;;;;5000036;28;20268;-87
2022/08/17 12:02:34;;;;;;;39.22;30.85;;;27.60;99.90;;;;;;5008776;28;20285;-87
2022/08/17 12:05:16;;;;;;;37.55;31.52;;;27.60;99.90;;;;;;5009775;28;20242;-87
2022/08/17 12:08:04;;;;;;;39.50;33.17;;;27.50;99.90;;;;;;5011263;28;20198;-87
2022/08/17 12:10:35;;;;;;;37.40;32.53;;;27.40;99.90;;;;;;5008819;28;20661;-86
2022/08/17 12:13:11;;;;;;;38.65;33.03;;;27.20;99.90;;;;;;5022564;28;20209;-87
2022/08/17 12:15:48;;;;;;;41.83;33.95;;;27.20;99.90;;;;;;5016697;28;20245;-87
2022/08/17 12:18:30;;;;;;;37.75;30.60;;;27.10;99.90;;;;;;4999991;28;20236;-92
2022/08/17 12:21:26;;;;;;;37.97;31.98;;;27.00;99.90;;;;;;4999778;28;20214;-87
2022/08/17 12:23:57;;;;;;;41.92;33.03;;;26.80;99.90;;;;;;5025608;28;20194;-88
2022/08/17 12:26:37;;;;;;;43.75;35.30;;;26.60;99.90;;;;;;5025979;28;20260;-87
2022/08/17 12:29:13;;;;;;;45.58;35.65;;;26.60;99.90;;;;;;5020055;28;20198;-86
2022/08/17 12:32:03;;;;;;;41.15;33.75;;;26.50;99.90;;;;;;5026588;28;20853;-87
2022/08/17 12:34:40;;;;;;;44.15;34.60;;;26.30;99.90;;;;;;5019590;28;20195;-86
2022/08/17 12:37:29;;;;;;;43.78;36.22;;;26.20;99.90;;;;;;5027623;28;20220;-86
2022/08/17 12:40:22;;;;;;;46.85;37.55;;;26.10;99.90;;;;;;5012431;28;20206;-89
2022/08/17 12:43:11;;;;;;;42.65;33.58;;;26.10;99.90;;;;;;4998638;28;20203;-86
2022/08/17 12:45:59;;;;;;;47.85;37.75;;;26.10;99.90;;;;;;5004316;28;20239;-87
2022/08/17 12:48:41;;;;;;;46.60;36.60;;;26.10;99.90;;;;;;5009252;28;20235;-87
2022/08/17 12:51:33;;;;;;;42.78;36.05;;;26.20;99.90;;;;;;4982345;28;20298;-86
2022/08/17 12:54:02;;;;;;;44.85;35.72;;;26.20;99.90;;;;;;4988393;28;20207;-87
2022/08/17 12:56:30;;;;;;;45.38;36.63;;;26.30;99.90;;;;;;4966424;28;20231;-84
2022/08/17 12:58:58;;;;;;;45.42;37.25;;;26.40;99.90;;;;;;4983653;28;20262;-87
2022/08/17 13:01:28;;;;;;;44.95;36.20;;;26.50;99.90;;;;;;4994855;28;20211;-88
2022/08/17 13:03:58;;;;;;;43.05;35.15;;;26.50;99.90;;;;;;4989931;28;20195;-85
2022/08/17 13:06:34;;;;;;;46.60;37.53;;;26.40;99.90;;;;;;5004514;28;20654;-87
2022/08/17 13:09:14;;;;;;;48.83;38.63;;;26.30;99.90;;;;;;4981581;28;20306;-86
2022/08/17 13:11:52;;;;;;;46.35;37.25;;;26.20;99.90;;;;;;4986566;28;20263;-86
2022/08/17 13:14:20;;;;;;;50.10;38.58;;;26.10;99.90;;;;;;4989427;28;20230;-87
2022/08/17 13:16:52;;;;;;;49.20;37.85;;;26.00;99.90;;;;;;4979804;28;20731;-87
2022/08/17 13:19:24;;;;;;;47.38;37.05;;;25.90;99.90;;;;;;4977037;28;20200;-87
2022/08/17 13:22:10;;;;;;;52.25;39.58;;;25.80;99.90;;;;;;4973681;28;20435;-87
2022/08/17 13:24:47;;;;;;;50.95;39.22;;;25.50;99.90;;;;;;4991073;28;20188;-85
2022/08/17 13:27:20;;;;;;;51.80;39.25;;;25.40;99.90;;;;;;4996767;28;20211;-87
2022/08/17 13:29:56;;;;;;;53.15;41.35;;;25.20;99.90;;;;;;4987321;28;20337;-86
2022/08/17 13:32:29;;;;;;;45.95;38.30;;;24.90;99.90;;;;;;4994388;28;20237;-84
2022/08/17 13:35:07;;;;;;;53.10;41.15;;;24.70;99.90;;;;;;4995500;28;20305;-82
2022/08/17 13:38:06;;;;;;;51.83;40.78;;;24.60;99.90;;;;;;4984255;28;20207;-84
2022/08/17 13:40:41;;;;;;;57.90;43.88;;;24.50;99.90;;;;;;4966045;28;20200;-87
2022/08/17 13:43:10;;;;;;;56.15;41.45;;;24.40;99.90;;;;;;4986043;28;20207;-86
2022/08/17 13:45:49;;;;;;;59.40;45.17;;;24.30;99.90;;;;;;4978752;28;20313;-86
2022/08/17 13:48:32;;;;;;;59.30;43.30;;;24.30;99.90;;;;;;4980628;28;20582;-87
2022/08/17 13:50:59;;;;;;;47.83;36.75;;;24.20;99.90;;;;;;5007458;28;20233;-86
2022/08/17 13:53:37;;;;;;;56.75;42.65;;;24.20;99.90;;;;;;4990686;28;20214;-85
2022/08/17 13:56:10;;;;;;;52.22;40.53;;;24.20;99.90;;;;;;4992993;28;20817;-86
2022/08/17 13:59:05;;;;;;;56.88;44.33;;;24.20;99.90;;;;;;5010419;28;20253;-86
2022/08/17 14:01:45;;;;;;;54.20;43.17;;;24.10;99.90;;;;;;4989994;28;20210;-88
2022/08/17 14:04:22;;;;;;;55.65;43.80;;;24.10;99.90;;;;;;5000152;28;20214;-86
2022/08/17 14:06:59;;;;;;;59.50;44.50;;;24.00;99.90;;;;;;5015537;28;20796;-86
2022/08/17 14:09:47;;;;;;;56.03;42.88;;;24.00;99.90;;;;;;4999288;28;20231;-87
2022/08/17 14:12:18;;;;;;;47.20;38.50;;;23.90;99.90;;;;;;5002257;28;20215;-88
2022/08/17 14:14:46;;;;;;;61.90;47.35;;;23.90;99.90;;;;;;5025350;28;20226;-86
2022/08/17 14:17:13;;;;;;;64.82;48.03;;;23.90;99.90;;;;;;5012930;28;20222;-86
2022/08/17 14:19:40;;;;;;;60.38;44.97;;;23.90;99.90;;;;;;5007041;28;20338;-87
2022/08/17 14:22:16;;;;;;;62.22;46.97;;;23.80;99.90;;;;;;5000473;28;20234;-86
2022/08/17 14:24:44;;;;;;;60.42;45.35;;;23.80;99.90;;;;;;4993118;28;20286;-87
2022/08/17 14:27:11;;;;;;;66.80;50.13;;;23.80;99.90;;;;;;4995133;28;20709;-87
2022/08/17 14:29:40;;;;;;;67.35;50.92;;;23.80;99.90;;;;;;5002998;28;20641;-85